Time;durP1;ratioP1;P1;durP2;ratioP2;P2;SDS_P1;SDS_P2;PMS_P1;PMS_P2;Temp;Humidity;BMP_temperature;BMP_pressure;BME280_temperature;BME280_humidity;BME280_pressure;Samples;Min_cycle;Max_cycle;Signal;HPM_P1;HPM_P2
2021/08/31 00:00:22;;;;;;;;;4.33;4.33;;;;;18.19;61.39;97886.97;6140954;22;104274;-87
2021/08/31 00:02:49;;;;;;;;;8.00;6.00;;;;;18.20;61.38;97894.06;6077903;22;102557;-86
2021/08/31 00:05:17;;;;;;;;;5.00;5.00;;;;;18.20;60.94;97888.59;6095369;22;102159;-87
2021/08/31 00:07:44;;;;;;;;;4.00;4.00;;;;;18.18;60.79;97888.88;6103780;22;102619;-86
2021/08/31 00:10:16;;;;;;;;;6.00;6.00;;;;;18.18;60.64;97890.81;6114503;22;104373;-86
2021/08/31 00:12:49;;;;;;;;;5.33;4.33;;;;;18.18;61.33;97894.38;6124496;22;103927;-86
2021/08/31 00:15:23;;;;;;;;;5.00;4.00;;;;;18.18;61.10;97896.28;6129876;22;102434;-86
2021/08/31 00:18:00;;;;;;;;;5.00;4.00;;;;;18.16;60.77;97895.69;6130370;22;102261;-86
2021/08/31 00:20:34;;;;;;;;;5.00;4.33;;;;;18.17;60.98;97895.44;6140964;22;103281;-86
2021/08/31 00:23:07;;;;;;;;;4.33;4.00;;;;;18.16;61.36;97893.78;6141654;22;102010;-86
2021/08/31 00:25:41;;;;;;;;;7.67;4.00;;;;;18.15;60.89;97880.38;6133168;22;102221;-86
2021/08/31 00:28:16;;;;;;;;;4.00;4.00;;;;;18.17;61.59;97889.16;6140608;22;102379;-87
2021/08/31 00:30:49;;;;;;;;;4.00;4.00;;;;;18.17;60.94;97883.69;6132250;22;103048;-86
2021/08/31 00:33:25;;;;;;;;;5.33;4.00;;;;;18.17;61.16;97895.44;6128075;22;102528;-87
2021/08/31 00:36:05;;;;;;;;;5.00;4.00;;;;;18.17;60.74;97894.63;6107412;22;104310;-87
2021/08/31 00:38:41;;;;;;;;;5.00;4.00;;;;;18.16;60.65;97887.50;6131411;22;102581;-87
2021/08/31 00:45:00;;;;;;;;;5.00;4.00;;;;;18.15;60.98;97880.38;6044214;22;105761;-86
2021/08/31 00:47:31;;;;;;;;;8.33;5.67;;;;;18.12;61.46;97881.75;6125220;22;102224;-86
2021/08/31 00:49:59;;;;;;;;;4.67;4.67;;;;;18.13;61.08;97882.56;6140521;22;102593;-87
2021/08/31 00:52:26;;;;;;;;;4.67;4.00;;;;;18.12;60.82;97875.44;6131229;22;104234;-87
2021/08/31 00:54:53;;;;;;;;;5.00;4.00;;;;;18.11;61.02;97874.63;6129578;22;102173;-87
2021/08/31 00:57:20;;;;;;;;;6.00;5.00;;;;;18.13;60.82;97879.81;6140588;22;101774;-87
2021/08/31 00:59:48;;;;;;;;;6.00;4.00;;;;;18.13;60.82;97879.81;6094027;22;104521;-86
2021/08/31 01:02:15;;;;;;;;;3.00;3.00;;;;;18.14;61.27;97876.00;6045022;22;104664;-86
2021/08/31 01:04:42;;;;;;;;;4.00;3.67;;;;;18.13;60.85;97879.81;6118654;22;102248;-86
2021/08/31 01:07:09;;;;;;;;;4.33;4.33;;;;;18.14;61.11;97886.97;6118262;22;102561;-87
2021/08/31 01:09:39;;;;;;;;;4.00;4.00;;;;;18.13;61.26;97882.56;6127151;22;102445;-87
2021/08/31 01:12:10;;;;;;;;;3.00;3.00;;;;;18.12;60.89;97880.91;6093134;22;103977;-86
2021/08/31 01:14:47;;;;;;;;;3.00;3.00;;;;;18.12;60.59;97872.69;6105343;22;102262;-87
2021/08/31 01:17:28;;;;;;;;;4.67;4.00;;;;;18.11;61.43;97885.56;5991049;22;102569;-86
2021/08/31 01:20:03;;;;;;;;;4.00;4.00;;;;;18.11;60.68;97873.78;6125277;22;102578;-86
2021/08/31 01:22:39;;;;;;;;;5.00;4.00;;;;;18.10;60.85;97872.16;6123789;22;102928;-86
2021/08/31 01:25:12;;;;;;;;;5.00;4.00;;;;;18.09;61.23;97865.03;6142153;22;102323;-86
2021/08/31 01:27:48;;;;;;;;;4.00;4.00;;;;;18.10;61.03;97872.16;6126531;22;102321;-86
2021/08/31 01:30:21;;;;;;;;;3.33;3.33;;;;;18.10;61.12;97863.97;6114077;22;102547;-86
2021/08/31 01:32:55;;;;;;;;;4.00;4.00;;;;;18.10;61.19;97862.00;6085760;22;103056;-86
2021/08/31 01:35:30;;;;;;;;;4.00;4.00;;;;;18.08;60.74;97850.53;6139720;22;102237;-86
2021/08/31 01:38:04;;;;;;;;;4.00;4.00;;;;;18.10;60.86;97855.75;6132218;22;102679;-86
2021/08/31 01:43:43;;;;;;;;;3.67;3.67;;;;;18.08;60.61;97857.91;6030725;22;108640;-86
2021/08/31 01:46:13;;;;;;;;;5.33;4.33;;;;;18.10;61.16;97855.75;6138753;22;102160;-86
2021/08/31 01:48:48;;;;;;;;;4.00;3.00;;;;;18.10;60.93;97855.75;6120932;22;102380;-86
2021/08/31 01:51:20;;;;;;;;;3.33;3.00;;;;;18.06;61.22;97866.38;6134681;22;102186;-86
2021/08/31 01:53:50;;;;;;;;;4.00;4.00;;;;;18.07;61.06;97846.16;6138605;22;103346;-86
2021/08/31 01:56:19;;;;;;;;;4.00;4.00;;;;;18.07;60.96;97846.16;6145505;22;102717;-86
2021/08/31 01:58:47;;;;;;;;;3.00;3.00;;;;;18.08;61.34;97841.50;6143629;22;102336;-86
2021/08/31 02:01:14;;;;;;;;;4.00;3.67;;;;;18.07;60.68;97845.31;6090703;22;102367;-86
2021/08/31 02:03:42;;;;;;;;;3.67;3.00;;;;;18.08;61.35;97838.75;6136480;22;108970;-86
2021/08/31 02:06:09;;;;;;;;;3.33;3.00;;;;;18.09;61.69;97832.22;6133441;22;102744;-87
2021/08/31 02:08:36;;;;;;;;;3.00;3.00;;;;;18.08;60.90;97844.22;6130961;22;102320;-86
2021/08/31 02:11:03;;;;;;;;;4.00;3.67;;;;;18.08;61.33;97836.03;6133787;22;102401;-86
2021/08/31 02:13:30;;;;;;;;;2.00;2.00;;;;;18.07;60.80;97827.00;6132975;22;103809;-87
2021/08/31 02:15:58;;;;;;;;;3.33;3.00;;;;;18.07;61.35;97827.00;6131049;22;103830;-86
2021/08/31 02:18:25;;;;;;;;;3.67;3.00;;;;;18.06;60.91;97844.50;6142193;22;102392;-86
2021/08/31 02:20:52;;;;;;;;;3.33;3.00;;;;;18.04;61.23;97843.94;6142217;22;102140;-86
2021/08/31 02:23:19;;;;;;;;;3.00;2.33;;;;;18.04;60.99;97829.44;6138338;22;104001;-87
2021/08/31 02:25:46;;;;;;;;;3.00;3.00;;;;;18.03;61.28;97844.22;6144532;22;102164;-86
2021/08/31 02:28:13;;;;;;;;;3.00;3.00;;;;;18.01;61.39;97840.94;6129103;22;102660;-86
2021/08/31 02:30:40;;;;;;;;;5.00;4.00;;;;;18.03;60.64;97845.03;6143948;22;102564;-87
2021/08/31 02:33:08;;;;;;;;;3.67;3.67;;;;;18.04;60.85;97845.88;6135760;22;104239;-86
2021/08/31 02:35:37;;;;;;;;;4.67;4.00;;;;;18.05;61.03;97839.31;6146104;22;102366;-87
2021/08/31 02:38:05;;;;;;;;;2.33;2.33;;;;;18.05;61.24;97836.56;6134863;22;102344;-86
2021/08/31 02:40:32;;;;;;;;;3.00;3.00;;;;;18.05;60.96;97839.31;6143751;22;102450;-86
2021/08/31 02:42:59;;;;;;;;;4.00;3.33;;;;;18.05;61.35;97831.09;6133318;22;104004;-86
2021/08/31 02:45:26;;;;;;;;;3.33;3.33;;;;;18.06;61.58;97843.66;6132947;22;102106;-86
2021/08/31 02:47:53;;;;;;;;;3.67;3.00;;;;;18.02;61.06;97834.34;6128624;22;102610;-86
2021/08/31 02:50:21;;;;;;;;;3.33;3.33;;;;;18.01;60.61;97827.25;6141078;22;102564;-86
2021/08/31 02:52:49;;;;;;;;;3.33;3.00;;;;;18.01;60.86;97830.78;6129819;22;103740;-86
2021/08/31 02:55:16;;;;;;;;;3.33;2.33;;;;;18.01;60.85;97835.47;6112669;22;102513;-86
2021/08/31 02:57:43;;;;;;;;;3.00;3.00;;;;;18.00;61.51;97829.16;6117227;22;102477;-86
2021/08/31 03:00:17;;;;;;;;;3.00;2.33;;;;;17.97;61.08;97824.22;6123072;22;102672;-87
2021/08/31 03:02:45;;;;;;;;;3.00;3.00;;;;;18.01;61.50;97830.00;6133821;22;103963;-86
2021/08/31 03:05:13;;;;;;;;;2.33;2.33;;;;;18.02;61.23;97835.19;6127612;22;102184;-86
2021/08/31 03:07:40;;;;;;;;;3.00;3.00;;;;;18.04;61.20;97826.72;6118313;22;102566;-86
2021/08/31 03:10:08;;;;;;;;;4.00;4.00;;;;;18.03;60.59;97828.63;6108357;22;102184;-86
2021/08/31 03:12:35;;;;;;;;;4.00;3.67;;;;;18.03;61.55;97830.53;6108368;22;104014;-86
2021/08/31 03:15:03;;;;;;;;;5.00;4.00;;;;;18.04;60.57;97823.97;6137679;22;102522;-86
2021/08/31 03:17:30;;;;;;;;;3.00;3.00;;;;;18.02;61.04;97820.66;6143847;22;102514;-86
2021/08/31 03:19:57;;;;;;;;;2.67;2.67;;;;;18.01;61.05;97825.31;6132718;22;102624;-86
2021/08/31 03:22:24;;;;;;;;;3.00;2.67;;;;;18.00;61.27;97820.13;6140009;22;104013;-86
2021/08/31 03:24:52;;;;;;;;;3.00;3.00;;;;;18.00;60.65;97822.88;6131189;22;102399;-86
2021/08/31 03:27:19;;;;;;;;;2.67;2.67;;;;;17.99;61.11;97813.00;6140597;22;102570;-87
2021/08/31 03:29:46;;;;;;;;;3.33;3.33;;;;;17.96;60.92;97811.66;6137784;22;102379;-86
2021/08/31 03:32:13;;;;;;;;;3.33;3.00;;;;;17.98;60.78;97814.09;6132646;22;104375;-86
2021/08/31 03:34:40;;;;;;;;;2.00;2.00;;;;;17.98;61.16;97814.91;6135197;22;102192;-87
2021/08/31 03:37:07;;;;;;;;;2.00;2.00;;;;;18.01;61.23;97819.06;6138560;22;102345;-86
2021/08/31 03:39:36;;;;;;;;;2.67;2.67;;;;;18.00;60.51;97815.50;6139871;22;102677;-86
2021/08/31 03:42:04;;;;;;;;;3.33;3.00;;;;;18.01;60.63;97816.31;6132743;22;104192;-86
2021/08/31 03:44:31;;;;;;;;;1.33;1.33;;;;;18.01;61.12;97816.31;6140896;22;102356;-86
2021/08/31 03:46:58;;;;;;;;;5.00;4.00;;;;;18.00;61.35;97822.88;6060527;22;102260;-87
2021/08/31 03:49:25;;;;;;;;;3.33;3.00;;;;;17.98;61.10;97819.56;6133080;22;102613;-87
2021/08/31 03:51:53;;;;;;;;;3.00;3.00;;;;;17.97;61.27;97817.91;6129165;22;104506;-87
2021/08/31 03:54:20;;;;;;;;;4.00;3.00;;;;;17.97;60.70;97818.75;6125121;22;102438;-87
2021/08/31 03:56:47;;;;;;;;;2.67;2.00;;;;;17.96;60.53;97821.75;6106116;22;102357;-86
2021/08/31 03:59:14;;;;;;;;;3.00;3.00;;;;;17.94;61.27;97824.75;6121265;22;102399;-87
2021/08/31 04:01:41;;;;;;;;;2.33;2.33;;;;;17.94;61.14;97816.53;6129260;22;104491;-86
2021/08/31 04:04:09;;;;;;;;;4.00;3.00;;;;;17.94;61.12;97823.94;6133430;22;102806;-86
2021/08/31 04:06:36;;;;;;;;;2.67;2.67;;;;;17.96;60.51;97821.75;6123462;22;102462;-86
2021/08/31 04:09:03;;;;;;;;;3.33;2.67;;;;;17.97;61.12;97826.94;6127721;22;102614;-86
2021/08/31 04:11:30;;;;;;;;;2.33;2.00;;;;;17.97;61.07;97837.06;6112871;22;104124;-86
2021/08/31 04:13:57;;;;;;;;;2.33;2.33;;;;;17.96;60.48;97819.84;6126094;22;102642;-86
2021/08/31 04:16:24;;;;;;;;;4.00;3.00;;;;;17.96;60.58;97829.97;6135049;22;102601;-86
2021/08/31 04:18:51;;;;;;;;;2.00;2.00;;;;;17.95;60.46;97825.59;6101276;22;102630;-86
2021/08/31 04:21:18;;;;;;;;;4.00;3.00;;;;;17.93;60.90;97822.28;6110054;22;104007;-86
2021/08/31 04:23:45;;;;;;;;;3.00;3.00;;;;;17.93;60.90;97816.81;6141083;22;102416;-86
2021/08/31 04:26:13;;;;;;;;;1.33;1.33;;;;;17.92;61.02;97820.66;6111373;22;102672;-86
2021/08/31 04:28:40;;;;;;;;;3.00;3.00;;;;;17.91;60.54;97819.00;6132501;22;102539;-86
2021/08/31 04:31:07;;;;;;;;;2.00;2.00;;;;;17.90;60.81;97822.81;6137004;22;104057;-86
2021/08/31 04:33:35;;;;;;;;;2.00;2.00;;;;;17.88;61.25;97816.81;6143330;22;102154;-86
2021/08/31 04:36:02;;;;;;;;;2.67;2.67;;;;;17.90;60.70;97818.19;6142714;22;104900;-87
2021/08/31 04:38:29;;;;;;;;;2.00;2.00;;;;;17.90;60.70;97811.88;6145410;22;102460;-85
2021/08/31 04:40:56;;;;;;;;;3.00;2.00;;;;;17.91;60.96;97808.06;6142796;22;104067;-86
2021/08/31 04:43:23;;;;;;;;;4.00;2.33;;;;;17.92;61.40;97807.78;6137962;22;102225;-86
2021/08/31 04:45:50;;;;;;;;;2.00;2.00;;;;;17.92;60.71;97810.50;6140486;22;102219;-86
2021/08/31 04:48:17;;;;;;;;;2.67;2.67;;;;;17.94;61.47;97810.25;6142425;22;103229;-86
2021/08/31 04:50:45;;;;;;;;;3.00;3.00;;;;;17.92;61.37;97813.25;6133581;22;104496;-86
2021/08/31 04:53:12;;;;;;;;;3.00;3.00;;;;;17.92;60.97;97815.19;6130801;22;102150;-86
2021/08/31 04:55:39;;;;;;;;;3.00;3.00;;;;;17.92;61.23;97812.44;6143338;22;102199;-86
2021/08/31 04:58:06;;;;;;;;;2.00;1.33;;;;;17.91;60.99;97814.34;6111237;22;102216;-86
2021/08/31 05:00:33;;;;;;;;;2.33;2.00;;;;;17.90;61.26;97818.19;6131204;22;107466;-86
2021/08/31 05:03:01;;;;;;;;;2.67;2.67;;;;;17.89;60.98;97807.50;6122909;22;102314;-86
2021/08/31 05:05:28;;;;;;;;;2.33;2.00;;;;;17.89;60.82;97799.28;6104650;22;102121;-86
2021/08/31 05:07:55;;;;;;;;;2.00;2.00;;;;;17.88;61.06;97803.94;6122297;22;102251;-86
2021/08/31 05:10:23;;;;;;;;;2.67;2.00;;;;;17.89;60.87;97816.53;6130029;22;104005;-86
2021/08/31 05:12:51;;;;;;;;;2.00;2.00;;;;;17.90;61.20;97804.50;6108157;22;102626;-86
2021/08/31 05:15:18;;;;;;;;;2.67;2.67;;;;;17.92;60.97;97809.72;6116939;22;102320;-86
2021/08/31 05:17:45;;;;;;;;;3.00;3.00;;;;;17.92;61.42;97801.50;6120186;22;102124;-86
2021/08/31 05:20:12;;;;;;;;;4.00;4.00;;;;;17.91;60.70;97808.88;6134512;22;104041;-86
2021/08/31 05:22:39;;;;;;;;;2.00;2.00;;;;;17.91;60.76;97802.59;6139390;22;102570;-86
2021/08/31 05:25:07;;;;;;;;;2.00;2.00;;;;;17.92;61.46;97809.72;6110714;22;102392;-86
2021/08/31 05:27:34;;;;;;;;;2.00;2.00;;;;;17.90;61.29;97812.72;6136305;22;102188;-86
2021/08/31 05:30:01;;;;;;;;;2.00;2.00;;;;;17.88;61.03;97809.41;6131812;22;104028;-86
2021/08/31 05:32:28;;;;;;;;;2.00;2.00;;;;;17.88;60.55;97808.59;6131093;22;102157;-86
2021/08/31 05:34:55;;;;;;;;;3.00;2.00;;;;;17.88;60.61;97811.34;6130175;22;103925;-86
2021/08/31 05:37:22;;;;;;;;;2.00;2.00;;;;;17.88;61.41;97814.06;6130281;22;102196;-86
2021/08/31 05:39:50;;;;;;;;;3.00;2.00;;;;;17.86;60.64;97811.59;6135705;22;104178;-87
2021/08/31 05:42:17;;;;;;;;;3.67;2.00;;;;;17.88;61.03;97816.81;6146281;22;102175;-86
2021/08/31 05:44:44;;;;;;;;;1.00;1.00;;;;;17.89;60.92;97813.78;6143249;22;105320;-87
2021/08/31 05:47:11;;;;;;;;;2.00;2.00;;;;;17.91;60.97;97819.00;6110406;22;102760;-86
2021/08/31 05:49:40;;;;;;;;;3.00;2.33;;;;;17.90;61.16;97812.72;6116346;22;104108;-86
2021/08/31 05:52:07;;;;;;;;;2.67;2.67;;;;;17.90;61.35;97818.19;6138360;22;102187;-86
2021/08/31 05:54:35;;;;;;;;;2.00;2.00;;;;;17.90;60.53;97811.88;6142059;22;104497;-86
2021/08/31 05:57:06;;;;;;;;;4.33;2.00;;;;;17.89;60.79;97812.97;6106655;22;102390;-86
2021/08/31 05:59:33;;;;;;;;;3.00;3.00;;;;;17.89;60.46;97824.72;6137779;22;103766;-86
2021/08/31 06:02:00;;;;;;;;;2.67;2.00;;;;;17.89;60.52;97812.97;6130264;22;102327;-86
2021/08/31 06:04:38;;;;;;;;;2.00;1.33;;;;;17.88;60.86;97819.53;6113531;22;102349;-86
2021/08/31 06:07:07;;;;;;;;;2.00;2.00;;;;;17.86;60.66;97814.34;6137439;22;102312;-86
2021/08/31 06:09:38;;;;;;;;;2.67;2.00;;;;;17.85;61.55;97815.41;6135080;22;103999;-86
2021/08/31 06:12:10;;;;;;;;;2.67;2.67;;;;;17.86;60.91;97811.59;6140488;22;102547;-86
2021/08/31 06:14:40;;;;;;;;;3.00;3.00;;;;;17.87;61.33;97815.97;6138875;22;104359;-86
2021/08/31 06:17:08;;;;;;;;;2.00;2.00;;;;;17.89;60.74;97812.97;6124642;22;102124;-86
2021/08/31 06:19:35;;;;;;;;;3.00;2.00;;;;;17.88;60.97;97809.41;6147051;22;104172;-86
2021/08/31 06:22:04;;;;;;;;;2.33;2.33;;;;;17.90;60.95;97820.09;6122174;22;102315;-86
2021/08/31 06:24:31;;;;;;;;;3.00;2.33;;;;;17.89;61.47;97815.69;6142094;22;102582;-86
2021/08/31 06:26:59;;;;;;;;;3.00;3.00;;;;;17.89;61.06;97821.16;6144515;22;102257;-86
2021/08/31 06:29:26;;;;;;;;;3.00;3.00;;;;;17.90;61.01;97822.81;6145727;22;104193;-86
2021/08/31 06:31:53;;;;;;;;;3.33;3.00;;;;;17.88;61.53;97820.34;6096231;22;105875;-86
2021/08/31 06:34:20;;;;;;;;;2.00;2.00;;;;;17.89;61.07;97823.91;6140570;22;102547;-86
2021/08/31 06:36:47;;;;;;;;;4.00;3.00;;;;;17.88;61.66;97814.06;6140007;22;102505;-86
2021/08/31 06:39:15;;;;;;;;;2.00;2.00;;;;;17.87;61.09;97818.72;6131855;22;103794;-86
2021/08/31 06:41:42;;;;;;;;;2.33;2.33;;;;;17.87;60.72;97823.38;6136331;22;102364;-86
2021/08/31 06:44:09;;;;;;;;;3.33;2.67;;;;;17.86;61.21;97813.50;6137623;22;103364;-86
2021/08/31 06:46:36;;;;;;;;;2.33;2.33;;;;;17.88;61.67;97819.53;6144399;22;102171;-86
2021/08/31 06:49:11;;;;;;;;;3.00;3.00;;;;;17.87;61.51;97807.78;6031530;22;104972;-86
2021/08/31 06:51:39;;;;;;;;;4.00;4.00;;;;;17.90;61.17;97809.16;6120892;22;102149;-86
2021/08/31 06:54:06;;;;;;;;;2.00;2.00;;;;;17.91;60.71;97813.53;6133344;22;102764;-86
2021/08/31 06:56:33;;;;;;;;;3.00;2.00;;;;;17.91;61.07;97816.25;6143966;22;102410;-86
2021/08/31 06:59:01;;;;;;;;;2.00;2.00;;;;;17.91;61.38;97817.09;6143872;22;108976;-86
2021/08/31 07:01:28;;;;;;;;;3.33;3.33;;;;;17.92;60.67;97820.66;6147755;22;102203;-86
2021/08/31 07:03:55;;;;;;;;;3.00;3.00;;;;;17.92;61.31;97820.66;6117229;22;102679;-86
2021/08/31 07:06:25;;;;;;;;;3.00;3.00;;;;;17.91;60.99;97819.81;6124346;22;102091;-86
2021/08/31 07:08:53;;;;;;;;;3.67;3.00;;;;;17.90;61.39;97820.09;6139274;22;104558;-86
2021/08/31 07:11:20;;;;;;;;;3.67;3.67;;;;;17.89;61.44;97821.16;6143047;22;102399;-86
2021/08/31 07:13:47;;;;;;;;;2.67;2.00;;;;;17.89;61.50;97823.91;6138015;22;102557;-87
2021/08/31 07:16:14;;;;;;;;;3.00;3.00;;;;;17.90;61.20;97825.56;6146505;22;102272;-86
2021/08/31 07:18:41;;;;;;;;;3.00;3.00;;;;;17.91;60.94;97825.31;6144845;22;104148;-86
2021/08/31 07:21:08;;;;;;;;;3.00;2.00;;;;;17.92;61.59;97826.91;6154471;22;102145;-86
2021/08/31 07:23:36;;;;;;;;;4.00;3.00;;;;;17.93;61.43;97827.75;6159375;22;102434;-86
2021/08/31 07:26:03;;;;;;;;;3.33;2.00;;;;;17.93;61.41;97825.84;6161049;22;102201;-86
2021/08/31 07:28:30;;;;;;;;;3.00;3.00;;;;;17.93;60.88;97822.28;6111269;22;104374;-86
2021/08/31 07:31:17;;;;;;;;;3.00;3.00;;;;;17.93;61.30;97828.56;6038362;22;102896;-86
2021/08/31 07:33:44;;;;;;;;;3.00;3.00;;;;;17.93;61.64;97828.56;6162430;22;102093;-86
2021/08/31 07:36:12;;;;;;;;;2.00;2.00;;;;;17.91;60.86;97830.78;6131347;22;102344;-86
2021/08/31 07:38:39;;;;;;;;;3.33;3.00;;;;;17.94;61.38;97832.13;6171521;22;103035;-86
2021/08/31 07:41:06;;;;;;;;;3.00;3.00;;;;;17.93;61.51;97839.50;6168411;22;101895;-86
2021/08/31 07:43:33;;;;;;;;;3.00;3.00;;;;;17.93;61.47;97855.09;6171940;22;102205;-86
2021/08/31 07:46:00;;;;;;;;;3.00;3.00;;;;;17.92;61.36;97848.81;6164196;22;102311;-86
2021/08/31 07:48:27;;;;;;;;;3.00;3.00;;;;;17.94;61.74;97852.09;6171093;22;103114;-86
2021/08/31 07:50:54;;;;;;;;;4.00;4.00;;;;;17.96;61.49;97854.59;6161951;22;102710;-86
2021/08/31 07:53:21;;;;;;;;;4.33;3.00;;;;;17.96;60.83;97854.59;6171625;22;101948;-87
2021/08/31 07:55:49;;;;;;;;;3.00;3.00;;;;;17.96;61.03;97847.22;6173153;22;101954;-86
2021/08/31 07:58:16;;;;;;;;;3.00;3.00;;;;;17.97;60.80;97850.75;6168522;22;103107;-86
2021/08/31 08:00:43;;;;;;;;;2.00;2.00;;;;;17.98;60.64;97853.22;6169223;22;101585;-86
2021/08/31 08:03:10;;;;;;;;;2.67;2.67;;;;;17.98;61.15;97853.22;6163435;22;101612;-86
2021/08/31 08:05:37;;;;;;;;;4.67;4.33;;;;;17.98;60.82;97850.47;6173782;22;101716;-86
2021/08/31 08:08:05;;;;;;;;;3.00;2.67;;;;;17.98;61.23;97857.88;6179300;22;103300;-86
2021/08/31 08:10:32;;;;;;;;;2.00;2.00;;;;;17.98;60.69;97860.59;6172211;22;101708;-86
2021/08/31 08:12:59;;;;;;;;;3.00;3.00;;;;;17.98;60.86;97864.16;6173784;22;102134;-86
2021/08/31 08:15:26;;;;;;;;;3.00;3.00;;;;;17.99;61.57;97848.56;6163187;22;101731;-86
2021/08/31 08:17:53;;;;;;;;;3.00;3.00;;;;;18.00;60.96;97859.25;6169317;22;103509;-86
2021/08/31 08:20:20;;;;;;;;;3.00;2.67;;;;;18.00;60.69;97855.69;6171978;22;101872;-86
2021/08/31 08:22:47;;;;;;;;;3.00;3.00;;;;;18.00;61.45;97847.50;6174229;22;101731;-87
2021/08/31 08:25:15;;;;;;;;;2.00;2.00;;;;;18.02;61.43;97848.03;6168640;22;101567;-86
2021/08/31 08:27:42;;;;;;;;;3.00;2.00;;;;;18.03;60.82;97853.25;6162675;22;103005;-86
2021/08/31 08:30:10;;;;;;;;;3.00;3.00;;;;;18.03;60.57;97857.88;6140754;22;103353;-86
2021/08/31 08:32:37;;;;;;;;;2.00;2.00;;;;;18.04;60.89;97856.81;6140570;22;102203;-86
2021/08/31 08:35:05;;;;;;;;;2.33;2.33;;;;;18.04;60.55;97859.53;6154695;22;102210;-86
2021/08/31 08:37:32;;;;;;;;;2.00;2.00;;;;;18.04;60.91;97863.09;6164828;22;103333;-86
2021/08/31 08:40:00;;;;;;;;;2.00;2.00;;;;;18.04;61.37;97857.63;6158781;22;102519;-86
2021/08/31 08:42:27;;;;;;;;;3.00;3.00;;;;;18.00;60.88;97844.75;6158727;22;102546;-86
2021/08/31 08:44:54;;;;;;;;;1.67;1.67;;;;;18.04;61.46;97856.81;6159490;22;101860;-86
2021/08/31 08:47:21;;;;;;;;;1.00;1.00;;;;;18.04;61.50;97846.69;6153229;22;104011;-86
2021/08/31 08:49:49;;;;;;;;;2.00;2.00;;;;;18.05;61.65;97853.00;6156018;22;104462;-86
2021/08/31 08:52:16;;;;;;;;;2.00;2.00;;;;;18.04;61.31;97865.00;6157165;22;102091;-86
2021/08/31 08:54:46;;;;;;;;;2.00;2.00;;;;;18.06;61.19;97865.56;6140344;22;102114;-86
2021/08/31 08:57:17;;;;;;;;;2.00;2.00;;;;;18.07;61.16;97864.47;6116902;22;103027;-86
2021/08/31 08:59:50;;;;;;;;;2.00;2.00;;;;;18.08;60.96;97871.59;6141428;22;102107;-86
2021/08/31 09:02:39;;;;;;;;;4.00;3.67;;;;;18.07;60.97;97872.69;6140751;22;102536;-86
2021/08/31 09:05:30;;;;;;;;;2.00;2.00;;;;;18.08;60.95;97874.31;6129144;22;102326;-86
2021/08/31 09:08:06;;;;;;;;;1.00;1.00;;;;;18.07;60.97;97864.47;6037591;22;108737;-86
2021/08/31 09:10:34;;;;;;;;;1.00;1.00;;;;;18.07;61.10;97856.25;6133344;22;102358;-86
2021/08/31 09:13:01;;;;;;;;;2.00;2.00;;;;;18.05;61.07;97842.88;6124951;22;102544;-86
2021/08/31 09:15:40;;;;;;;;;2.67;2.00;;;;;18.06;61.28;97846.41;6132100;22;102280;-86
2021/08/31 09:18:15;;;;;;;;;3.00;1.00;;;;;18.07;61.48;97848.06;6115052;22;108892;-86
2021/08/31 09:20:45;;;;;;;;;3.33;2.00;;;;;18.07;61.29;97856.25;6097814;22;102248;-86
2021/08/31 09:23:17;;;;;;;;;1.33;1.00;;;;;18.08;61.36;97846.97;6126235;22;102701;-86
2021/08/31 09:25:46;;;;;;;;;4.00;2.00;;;;;18.08;61.63;97842.31;6136311;22;102071;-87
2021/08/31 09:28:26;;;;;;;;;2.33;2.00;;;;;18.09;60.85;97837.69;6127203;22;104092;-87
2021/08/31 09:31:01;;;;;;;;;2.00;2.00;;;;;18.10;61.00;97840.13;6133447;22;102623;-86
2021/08/31 09:33:30;;;;;;;;;2.00;2.00;;;;;18.11;61.46;97836.31;6130192;22;102564;-86
2021/08/31 09:36:09;;;;;;;;;3.00;2.00;;;;;18.12;61.18;97848.06;6105035;22;102496;-86
2021/08/31 09:39:05;;;;;;;;;2.00;1.33;;;;;18.12;60.66;97842.59;6099286;22;103993;-86
2021/08/31 09:41:40;;;;;;;;;2.00;1.00;;;;;18.12;61.28;97840.69;6041741;22;102173;-86
2021/08/31 09:44:11;;;;;;;;;2.00;2.00;;;;;18.13;60.83;97844.25;6122880;22;102241;-86
2021/08/31 09:46:49;;;;;;;;;1.00;1.00;;;;;18.14;61.72;97840.44;6108528;22;102087;-86
2021/08/31 09:49:20;;;;;;;;;2.00;2.00;;;;;18.14;61.45;97845.91;6109307;22;108713;-86
2021/08/31 09:52:00;;;;;;;;;1.00;1.00;;;;;18.15;61.67;97847.53;6114671;22;102039;-86
2021/08/31 09:54:27;;;;;;;;;1.00;1.00;;;;;18.14;62.22;97837.69;6130221;22;102212;-86
2021/08/31 09:56:54;;;;;;;;;1.00;1.00;;;;;18.17;61.86;97834.41;6146028;22;104455;-86
2021/08/31 09:59:33;;;;;;;;;1.00;1.00;;;;;18.18;62.02;97834.16;6120296;22;104083;-86
2021/08/31 10:02:00;;;;;;;;;1.00;1.00;;;;;18.20;61.85;97842.09;6132174;22;102374;-87
2021/08/31 10:04:28;;;;;;;;;1.00;1.00;;;;;18.21;62.22;97847.28;6131810;22;102318;-86
2021/08/31 10:06:55;;;;;;;;;3.00;2.00;;;;;18.21;61.97;97851.94;6148396;22;102586;-86
2021/08/31 10:09:22;;;;;;;;;1.00;1.00;;;;;18.22;62.54;97843.47;6110388;22;104095;-86
2021/08/31 10:11:49;;;;;;;;;2.00;2.00;;;;;18.22;63.32;97848.94;6118968;22;103143;-86
2021/08/31 10:14:16;;;;;;;;;1.67;1.00;;;;;18.23;63.48;97852.50;6130682;22;102243;-86
2021/08/31 10:16:43;;;;;;;;;1.00;1.00;;;;;18.23;62.95;97850.59;6100860;22;102369;-86
2021/08/31 10:19:10;;;;;;;;;1.00;1.00;;;;;18.25;63.29;97853.88;6081858;22;108703;-86
2021/08/31 10:21:38;;;;;;;;;1.67;0.67;;;;;18.25;62.72;97844.84;6126864;22;102598;-86
2021/08/31 10:24:05;;;;;;;;;2.00;2.00;;;;;18.25;62.92;97848.41;6117054;22;102603;-86
2021/08/31 10:26:34;;;;;;;;;2.00;2.00;;;;;18.27;62.61;97842.66;6109098;22;102574;-86
2021/08/31 10:29:13;;;;;;;;;1.00;1.00;;;;;18.29;62.74;97841.28;6126749;22;104757;-86
2021/08/31 10:31:44;;;;;;;;;1.00;1.00;;;;;18.29;61.49;97838.56;6091520;22;104503;-86
2021/08/31 10:34:30;;;;;;;;;1.00;1.00;;;;;18.33;61.84;97849.00;6132026;22;104756;-86
2021/08/31 10:37:06;;;;;;;;;2.00;1.00;;;;;18.34;62.15;97840.50;6033714;22;102303;-86
2021/08/31 10:39:54;;;;;;;;;1.00;1.00;;;;;18.36;61.96;97842.97;6130720;22;103971;-86
2021/08/31 10:42:24;;;;;;;;;1.00;1.00;;;;;18.36;61.65;97859.38;6047999;22;102222;-86
2021/08/31 10:44:54;;;;;;;;;2.00;2.00;;;;;18.36;61.72;97862.97;6140209;22;102304;-86
2021/08/31 10:47:31;;;;;;;;;2.00;2.00;;;;;18.37;61.55;97864.56;6142259;22;102550;-86
2021/08/31 10:49:58;;;;;;;;;2.00;1.33;;;;;18.38;61.16;97873.63;6140116;22;104074;-86
2021/08/31 10:52:38;;;;;;;;;1.00;1.00;;;;;18.37;61.32;97872.78;6143763;22;102201;-86
2021/08/31 10:55:06;;;;;;;;;0.00;0.00;;;;;18.38;61.26;97881.81;6137048;22;102645;-86
2021/08/31 10:57:36;;;;;;;;;1.00;1.00;;;;;18.38;61.31;97876.34;6140689;22;102406;-86
2021/08/31 11:00:24;;;;;;;;;1.00;1.00;;;;;18.38;61.61;97868.13;6144702;22;104047;-86
2021/08/31 11:02:58;;;;;;;;;1.33;1.33;;;;;18.38;60.79;97895.50;6041838;22;102207;-86
2021/08/31 11:05:30;;;;;;;;;1.00;1.00;;;;;18.39;61.14;97887.03;6140957;22;102247;-86
2021/08/31 11:07:57;;;;;;;;;1.00;1.00;;;;;18.38;61.05;97882.66;6139820;22;102154;-86
2021/08/31 11:10:28;;;;;;;;;2.00;1.00;;;;;18.39;61.21;97892.50;6135748;22;104487;-86
2021/08/31 11:12:56;;;;;;;;;1.00;1.00;;;;;18.39;61.04;97878.84;6104881;22;102302;-86
2021/08/31 11:15:25;;;;;;;;;1.67;1.00;;;;;18.39;61.35;97875.28;6114893;22;102365;-86
2021/08/31 11:17:53;;;;;;;;;1.00;1.00;;;;;18.40;61.33;97868.72;6124306;22;102576;-86
2021/08/31 11:20:23;;;;;;;;;0.00;0.00;;;;;18.39;61.05;97876.09;6106857;22;104547;-86
2021/08/31 11:23:14;;;;;;;;;0.00;0.00;;;;;18.40;61.60;97861.31;6128071;22;102075;-86
2021/08/31 11:25:43;;;;;;;;;1.00;1.00;;;;;18.40;61.97;97875.00;6136184;22;102256;-86
2021/08/31 11:28:12;;;;;;;;;2.00;2.00;;;;;18.39;62.19;97859.66;6120631;22;105028;-87
2021/08/31 11:30:47;;;;;;;;;1.00;1.00;;;;;18.40;61.30;97850.38;6136678;22;103831;-86
2021/08/31 11:33:20;;;;;;;;;1.00;0.67;;;;;18.42;61.72;97842.69;6106749;22;102288;-86
2021/08/31 11:35:48;;;;;;;;;1.00;1.00;;;;;18.42;61.62;97848.16;6143491;22;102639;-86
2021/08/31 11:38:15;;;;;;;;;1.00;1.00;;;;;18.40;61.82;97850.38;6086215;22;102537;-86
2021/08/31 11:40:42;;;;;;;;;1.00;1.00;;;;;18.42;61.78;97847.34;6118817;22;104022;-86